sensor_id;sensor_type;location;lat;lon;timestamp;pressure;altitude;pressure_sealevel;temperature;humidity
9784;BME280;4931;44.874;-1.092;2022-10-03T00:01:38;102309.69;;;13.03;100.00
9784;BME280;4931;44.874;-1.092;2022-10-03T00:06:35;102307.19;;;13.02;100.00
9784;BME280;4931;44.874;-1.092;2022-10-03T00:11:33;102300.50;;;12.92;100.00
9784;BME280;4931;44.874;-1.092;2022-10-03T00:16:32;102297.94;;;12.86;100.00
9784;BME280;4931;44.874;-1.092;2022-10-03T00:21:36;102304.53;;;12.85;100.00
9784;BME280;4931;44.874;-1.092;2022-10-03T00:26:36;102294.00;;;12.82;100.00
9784;BME280;4931;44.874;-1.092;2022-10-03T00:31:37;102292.94;;;12.83;100.00
9784;BME280;4931;44.874;-1.092;2022-10-03T00:36:35;102293.97;;;12.76;100.00
9784;BME280;4931;44.874;-1.092;2022-10-03T00:41:46;102293.13;;;12.76;100.00
9784;BME280;4931;44.874;-1.092;2022-10-03T00:46:53;102300.97;;;12.62;100.00
9784;BME280;4931;44.874;-1.092;2022-10-03T00:51:55;102293.53;;;12.62;100.00
9784;BME280;4931;44.874;-1.092;2022-10-03T01:01:55;102295.53;;;12.45;100.00
9784;BME280;4931;44.874;-1.092;2022-10-03T01:06:48;102287.13;;;12.35;100.00
9784;BME280;4931;44.874;-1.092;2022-10-03T01:11:51;102285.53;;;12.39;100.00
9784;BME280;4931;44.874;-1.092;2022-10-03T01:16:53;102278.47;;;12.26;100.00
9784;BME280;4931;44.874;-1.092;2022-10-03T01:21:50;102283.53;;;12.34;100.00
9784;BME280;4931;44.874;-1.092;2022-10-03T01:26:53;102273.84;;;12.32;100.00
9784;BME280;4931;44.874;-1.092;2022-10-03T01:31:50;102272.13;;;12.25;100.00
9784;BME280;4931;44.874;-1.092;2022-10-03T01:36:41;102272.50;;;11.95;100.00
9784;BME280;4931;44.874;-1.092;2022-10-03T01:41:36;102268.91;;;12.11;100.00
9784;BME280;4931;44.874;-1.092;2022-10-03T01:46:37;102271.16;;;12.15;100.00
9784;BME280;4931;44.874;-1.092;2022-10-03T01:51:28;102259.50;;;12.07;100.00
9784;BME280;4931;44.874;-1.092;2022-10-03T01:56:23;102264.09;;;11.85;100.00
9784;BME280;4931;44.874;-1.092;2022-10-03T02:01:25;102257.13;;;11.60;100.00
9784;BME280;4931;44.874;-1.092;2022-10-03T02:06:44;102258.53;;;11.45;100.00
9784;BME280;4931;44.874;-1.092;2022-10-03T02:11:37;102249.50;;;11.33;100.00
9784;BME280;4931;44.874;-1.092;2022-10-03T02:16:38;102249.69;;;11.43;100.00
9784;BME280;4931;44.874;-1.092;2022-10-03T02:21:28;102255.19;;;11.43;100.00
9784;BME280;4931;44.874;-1.092;2022-10-03T02:26:44;102242.53;;;11.42;100.00
9784;BME280;4931;44.874;-1.092;2022-10-03T02:32:14;102243.53;;;11.36;100.00
9784;BME280;4931;44.874;-1.092;2022-10-03T02:49:08;102245.50;;;11.24;100.00
9784;BME280;4931;44.874;-1.092;2022-10-03T02:59:57;102228.34;;;11.00;100.00
9784;BME280;4931;44.874;-1.092;2022-10-03T03:05:24;102224.19;;;10.97;100.00
9784;BME280;4931;44.874;-1.092;2022-10-03T03:16:15;102220.03;;;10.94;100.00
9784;BME280;4931;44.874;-1.092;2022-10-03T03:21:17;102219.34;;;11.04;100.00
9784;BME280;4931;44.874;-1.092;2022-10-03T03:26:24;102217.53;;;10.93;100.00
9784;BME280;4931;44.874;-1.092;2022-10-03T03:31:33;102209.19;;;10.88;100.00
9784;BME280;4931;44.874;-1.092;2022-10-03T03:36:39;102214.00;;;10.80;100.00
9784;BME280;4931;44.874;-1.092;2022-10-03T03:41:48;102207.19;;;10.83;100.00
9784;BME280;4931;44.874;-1.092;2022-10-03T03:47:04;102209.00;;;10.77;100.00
9784;BME280;4931;44.874;-1.092;2022-10-03T03:52:26;102211.84;;;10.83;100.00
9784;BME280;4931;44.874;-1.092;2022-10-03T03:57:40;102212.16;;;10.69;100.00
9784;BME280;4931;44.874;-1.092;2022-10-03T04:03:02;102218.09;;;10.66;100.00
9784;BME280;4931;44.874;-1.092;2022-10-03T04:08:23;102208.03;;;10.84;100.00
9784;BME280;4931;44.874;-1.092;2022-10-03T04:13:27;102209.66;;;10.85;100.00
9784;BME280;4931;44.874;-1.092;2022-10-03T04:18:36;102201.84;;;10.76;100.00
9784;BME280;4931;44.874;-1.092;2022-10-03T04:23:54;102206.06;;;10.67;100.00
9784;BME280;4931;44.874;-1.092;2022-10-03T04:29:23;102198.53;;;10.74;100.00
9784;BME280;4931;44.874;-1.092;2022-10-03T04:34:25;102197.50;;;10.80;100.00
9784;BME280;4931;44.874;-1.092;2022-10-03T04:39:19;102184.44;;;10.71;100.00
9784;BME280;4931;44.874;-1.092;2022-10-03T04:44:19;102182.84;;;10.58;100.00
9784;BME280;4931;44.874;-1.092;2022-10-03T04:49:19;102185.56;;;10.58;100.00
9784;BME280;4931;44.874;-1.092;2022-10-03T04:54:15;102177.75;;;10.50;100.00
9784;BME280;4931;44.874;-1.092;2022-10-03T04:59:19;102171.66;;;10.48;100.00
9784;BME280;4931;44.874;-1.092;2022-10-03T05:04:18;102171.97;;;10.63;100.00
9784;BME280;4931;44.874;-1.092;2022-10-03T05:09:20;102168.72;;;10.66;100.00
9784;BME280;4931;44.874;-1.092;2022-10-03T05:14:11;102172.81;;;10.52;100.00
9784;BME280;4931;44.874;-1.092;2022-10-03T05:19:25;102174.56;;;10.29;100.00
9784;BME280;4931;44.874;-1.092;2022-10-03T05:24:44;102186.41;;;10.06;100.00
9784;BME280;4931;44.874;-1.092;2022-10-03T05:30:00;102182.19;;;9.86;100.00
9784;BME280;4931;44.874;-1.092;2022-10-03T05:35:17;102174.66;;;9.82;100.00
9784;BME280;4931;44.874;-1.092;2022-10-03T05:40:13;102178.69;;;9.91;100.00
9784;BME280;4931;44.874;-1.092;2022-10-03T05:45:03;102186.91;;;10.03;100.00
9784;BME280;4931;44.874;-1.092;2022-10-03T05:50:11;102177.72;;;10.09;100.00
9784;BME280;4931;44.874;-1.092;2022-10-03T05:55:21;102187.16;;;10.01;100.00
9784;BME280;4931;44.874;-1.092;2022-10-03T06:00:19;102191.06;;;10.05;100.00
9784;BME280;4931;44.874;-1.092;2022-10-03T06:05:20;102196.22;;;9.90;100.00
9784;BME280;4931;44.874;-1.092;2022-10-03T06:10:23;102186.53;;;9.99;100.00
9784;BME280;4931;44.874;-1.092;2022-10-03T06:15:37;102184.91;;;9.98;100.00
9784;BME280;4931;44.874;-1.092;2022-10-03T06:20:56;102194.53;;;10.01;100.00
9784;BME280;4931;44.874;-1.092;2022-10-03T06:26:03;102185.09;;;10.08;100.00
9784;BME280;4931;44.874;-1.092;2022-10-03T06:36:42;102181.34;;;10.26;100.00
9784;BME280;4931;44.874;-1.092;2022-10-03T06:47:13;102186.53;;;9.99;100.00
9784;BME280;4931;44.874;-1.092;2022-10-03T06:52:29;102193.34;;;9.96;100.00
9784;BME280;4931;44.874;-1.092;2022-10-03T07:03:22;102194.59;;;10.41;100.00
9784;BME280;4931;44.874;-1.092;2022-10-03T07:08:42;102197.16;;;10.60;100.00
9784;BME280;4931;44.874;-1.092;2022-10-03T07:14:07;102198.84;;;10.78;100.00
9784;BME280;4931;44.874;-1.092;2022-10-03T07:19:13;102202.16;;;11.26;100.00
9784;BME280;4931;44.874;-1.092;2022-10-03T07:24:18;102208.06;;;11.91;100.00
9784;BME280;4931;44.874;-1.092;2022-10-03T07:29:17;102193.41;;;12.69;100.00
9784;BME280;4931;44.874;-1.092;2022-10-03T07:40:12;102179.28;;;14.05;100.00
9784;BME280;4931;44.874;-1.092;2022-10-03T07:45:25;102182.22;;;14.57;100.00
9784;BME280;4931;44.874;-1.092;2022-10-03T07:50:34;102179.56;;;15.14;100.00
9784;BME280;4931;44.874;-1.092;2022-10-03T07:55:54;102185.59;;;15.67;100.00
9784;BME280;4931;44.874;-1.092;2022-10-03T08:06:23;102185.84;;;16.52;100.00
9784;BME280;4931;44.874;-1.092;2022-10-03T08:11:40;102180.31;;;16.52;100.00
9784;BME280;4931;44.874;-1.092;2022-10-03T08:16:54;102183.06;;;16.97;100.00
9784;BME280;4931;44.874;-1.092;2022-10-03T08:22:03;102180.69;;;17.49;100.00
9784;BME280;4931;44.874;-1.092;2022-10-03T08:27:13;102183.31;;;17.64;100.00
9784;BME280;4931;44.874;-1.092;2022-10-03T08:32:36;102188.94;;;17.30;100.00
9784;BME280;4931;44.874;-1.092;2022-10-03T08:43:05;102193.53;;;17.98;100.00
9784;BME280;4931;44.874;-1.092;2022-10-03T08:48:32;102193.75;;;18.26;100.00
9784;BME280;4931;44.874;-1.092;2022-10-03T08:53:46;102180.81;;;18.60;100.00
9784;BME280;4931;44.874;-1.092;2022-10-03T08:59:11;102180.16;;;18.24;100.00
9784;BME280;4931;44.874;-1.092;2022-10-03T09:04:26;102182.97;;;18.63;100.00
9784;BME280;4931;44.874;-1.092;2022-10-03T09:10:04;102174.16;;;18.55;100.00
9784;BME280;4931;44.874;-1.092;2022-10-03T09:20:46;102179.88;;;19.35;100.00
9784;BME280;4931;44.874;-1.092;2022-10-03T09:26:11;102179.06;;;19.35;100.00
9784;BME280;4931;44.874;-1.092;2022-10-03T09:31:16;102166.97;;;19.72;100.00
9784;BME280;4931;44.874;-1.092;2022-10-03T09:36:22;102157.16;;;20.17;100.00
9784;BME280;4931;44.874;-1.092;2022-10-03T09:41:46;102152.97;;;20.05;100.00
9784;BME280;4931;44.874;-1.092;2022-10-03T09:52:25;102158.63;;;20.51;100.00
9784;BME280;4931;44.874;-1.092;2022-10-03T09:57:41;102158.06;;;20.99;100.00
9784;BME280;4931;44.874;-1.092;2022-10-03T10:03:04;102143.34;;;20.62;100.00
9784;BME280;4931;44.874;-1.092;2022-10-03T10:08:09;102156.50;;;20.84;100.00
9784;BME280;4931;44.874;-1.092;2022-10-03T10:13:19;102150.97;;;21.16;100.00
9784;BME280;4931;44.874;-1.092;2022-10-03T10:18:45;102152.34;;;21.27;100.00
9784;BME280;4931;44.874;-1.092;2022-10-03T10:23:50;102146.69;;;21.81;100.00
9784;BME280;4931;44.874;-1.092;2022-10-03T10:29:10;102141.44;;;21.71;100.00
9784;BME280;4931;44.874;-1.092;2022-10-03T10:45:21;102134.72;;;21.49;100.00
9784;BME280;4931;44.874;-1.092;2022-10-03T10:50:38;102128.47;;;21.44;100.00
9784;BME280;4931;44.874;-1.092;2022-10-03T10:55:49;102127.28;;;21.67;100.00
9784;BME280;4931;44.874;-1.092;2022-10-03T11:01:13;102121.97;;;21.57;100.00
9784;BME280;4931;44.874;-1.092;2022-10-03T11:06:26;102119.47;;;21.96;100.00
9784;BME280;4931;44.874;-1.092;2022-10-03T11:11:41;102109.81;;;22.11;100.00
9784;BME280;4931;44.874;-1.092;2022-10-03T11:22:28;102099.53;;;22.55;100.00
9784;BME280;4931;44.874;-1.092;2022-10-03T11:27:54;102093.72;;;22.69;100.00
9784;BME280;4931;44.874;-1.092;2022-10-03T11:33:19;102098.50;;;22.68;100.00
9784;BME280;4931;44.874;-1.092;2022-10-03T11:38:17;102093.22;;;22.76;100.00
9784;BME280;4931;44.874;-1.092;2022-10-03T11:48:37;102081.88;;;22.81;100.00
9784;BME280;4931;44.874;-1.092;2022-10-03T11:53:40;102070.91;;;23.23;100.00
9784;BME280;4931;44.874;-1.092;2022-10-03T11:58:35;102065.84;;;23.08;100.00
9784;BME280;4931;44.874;-1.092;2022-10-03T12:03:24;102066.03;;;22.94;100.00
9784;BME280;4931;44.874;-1.092;2022-10-03T12:08:20;102076.44;;;22.76;100.00
9784;BME280;4931;44.874;-1.092;2022-10-03T12:13:28;102067.09;;;23.36;100.00
9784;BME280;4931;44.874;-1.092;2022-10-03T12:18:20;102064.47;;;23.31;100.00
9784;BME280;4931;44.874;-1.092;2022-10-03T12:23:19;102062.19;;;23.54;100.00
9784;BME280;4931;44.874;-1.092;2022-10-03T12:28:17;102046.47;;;24.01;100.00
9784;BME280;4931;44.874;-1.092;2022-10-03T12:33:25;102044.69;;;23.96;100.00
9784;BME280;4931;44.874;-1.092;2022-10-03T12:38:24;102036.63;;;23.95;100.00
9784;BME280;4931;44.874;-1.092;2022-10-03T12:43:28;102029.09;;;24.08;100.00
9784;BME280;4931;44.874;-1.092;2022-10-03T12:48:40;102025.16;;;24.09;100.00
9784;BME280;4931;44.874;-1.092;2022-10-03T12:53:33;102019.06;;;23.77;100.00
9784;BME280;4931;44.874;-1.092;2022-10-03T12:58:28;102020.72;;;23.78;100.00
9784;BME280;4931;44.874;-1.092;2022-10-03T13:03:21;102008.25;;;23.66;100.00
9784;BME280;4931;44.874;-1.092;2022-10-03T13:08:24;102003.97;;;23.69;100.00
9784;BME280;4931;44.874;-1.092;2022-10-03T13:13:22;102005.88;;;23.26;100.00
9784;BME280;4931;44.874;-1.092;2022-10-03T13:18:32;101997.13;;;22.89;100.00
9784;BME280;4931;44.874;-1.092;2022-10-03T13:23:29;101996.09;;;23.02;100.00
9784;BME280;4931;44.874;-1.092;2022-10-03T13:28:24;101981.66;;;22.83;100.00
9784;BME280;4931;44.874;-1.092;2022-10-03T13:33:15;101991.22;;;22.82;100.00
9784;BME280;4931;44.874;-1.092;2022-10-03T13:38:33;101980.47;;;22.93;100.00
9784;BME280;4931;44.874;-1.092;2022-10-03T13:43:25;101970.91;;;23.02;100.00
9784;BME280;4931;44.874;-1.092;2022-10-03T13:48:19;101963.84;;;22.96;100.00
9784;BME280;4931;44.874;-1.092;2022-10-03T13:53:12;101959.28;;;22.83;100.00
9784;BME280;4931;44.874;-1.092;2022-10-03T13:58:17;101955.16;;;22.89;100.00
9784;BME280;4931;44.874;-1.092;2022-10-03T14:03:15;101948.19;;;23.04;100.00
9784;BME280;4931;44.874;-1.092;2022-10-03T14:08:09;101953.16;;;23.28;100.00
9784;BME280;4931;44.874;-1.092;2022-10-03T14:13:10;101956.16;;;23.23;100.00
9784;BME280;4931;44.874;-1.092;2022-10-03T14:18:05;101938.25;;;22.77;100.00
9784;BME280;4931;44.874;-1.092;2022-10-03T14:23:12;101940.34;;;22.88;100.00
9784;BME280;4931;44.874;-1.092;2022-10-03T14:28:09;101930.09;;;23.01;100.00
9784;BME280;4931;44.874;-1.092;2022-10-03T14:33:09;101919.28;;;22.82;100.00
9784;BME280;4931;44.874;-1.092;2022-10-03T14:38:17;101921.81;;;22.75;100.00
9784;BME280;4931;44.874;-1.092;2022-10-03T14:43:19;101908.22;;;22.56;100.00
9784;BME280;4931;44.874;-1.092;2022-10-03T14:48:12;101899.25;;;22.80;100.00
9784;BME280;4931;44.874;-1.092;2022-10-03T14:53:02;101904.00;;;22.80;100.00
9784;BME280;4931;44.874;-1.092;2022-10-03T14:57:51;101897.19;;;22.60;100.00
9784;BME280;4931;44.874;-1.092;2022-10-03T15:02:54;101886.63;;;22.65;100.00
9784;BME280;4931;44.874;-1.092;2022-10-03T15:07:42;101883.34;;;22.72;100.00
9784;BME280;4931;44.874;-1.092;2022-10-03T15:12:31;101885.66;;;22.61;100.00
9784;BME280;4931;44.874;-1.092;2022-10-03T15:17:20;101884.59;;;22.45;100.00
9784;BME280;4931;44.874;-1.092;2022-10-03T15:22:24;101869.31;;;22.33;100.00
9784;BME280;4931;44.874;-1.092;2022-10-03T15:27:18;101881.31;;;22.34;100.00
9784;BME280;4931;44.874;-1.092;2022-10-03T15:32:09;101872.63;;;22.35;100.00
9784;BME280;4931;44.874;-1.092;2022-10-03T15:37:07;101870.16;;;22.25;100.00
9784;BME280;4931;44.874;-1.092;2022-10-03T15:42:18;101874.63;;;22.09;100.00
9784;BME280;4931;44.874;-1.092;2022-10-03T15:47:07;101863.63;;;22.03;100.00
9784;BME280;4931;44.874;-1.092;2022-10-03T15:51:57;101861.16;;;22.02;100.00
9784;BME280;4931;44.874;-1.092;2022-10-03T15:56:44;101869.38;;;21.98;100.00
9784;BME280;4931;44.874;-1.092;2022-10-03T16:01:38;101866.16;;;21.79;100.00
9784;BME280;4931;44.874;-1.092;2022-10-03T16:06:29;101858.41;;;21.76;100.00
9784;BME280;4931;44.874;-1.092;2022-10-03T16:11:20;101861.84;;;21.90;100.00
9784;BME280;4931;44.874;-1.092;2022-10-03T16:16:11;101851.69;;;21.77;100.00
9784;BME280;4931;44.874;-1.092;2022-10-03T16:21:01;101854.81;;;21.66;100.00
9784;BME280;4931;44.874;-1.092;2022-10-03T16:25:49;101850.69;;;21.55;100.00
9784;BME280;4931;44.874;-1.092;2022-10-03T16:30:40;101854.34;;;21.64;100.00
9784;BME280;4931;44.874;-1.092;2022-10-03T16:35:33;101850.06;;;21.58;100.00
9784;BME280;4931;44.874;-1.092;2022-10-03T16:40:21;101859.69;;;21.52;100.00
9784;BME280;4931;44.874;-1.092;2022-10-03T16:45:20;101848.53;;;21.52;100.00
9784;BME280;4931;44.874;-1.092;2022-10-03T16:50:20;101846.91;;;21.42;100.00
9784;BME280;4931;44.874;-1.092;2022-10-03T16:55:14;101849.03;;;21.36;100.00
9784;BME280;4931;44.874;-1.092;2022-10-03T17:00:04;101848.69;;;21.29;100.00
9784;BME280;4931;44.874;-1.092;2022-10-03T17:05:01;101858.19;;;21.19;100.00
9784;BME280;4931;44.874;-1.092;2022-10-03T17:09:49;101860.78;;;20.98;100.00
9784;BME280;4931;44.874;-1.092;2022-10-03T17:14:37;101861.41;;;20.78;100.00
9784;BME280;4931;44.874;-1.092;2022-10-03T17:19:33;101870.16;;;20.62;100.00
9784;BME280;4931;44.874;-1.092;2022-10-03T17:24:42;101870.72;;;20.42;100.00
9784;BME280;4931;44.874;-1.092;2022-10-03T17:29:31;101877.22;;;20.28;100.00
9784;BME280;4931;44.874;-1.092;2022-10-03T17:34:19;101884.00;;;20.13;100.00
9784;BME280;4931;44.874;-1.092;2022-10-03T17:39:14;101893.69;;;19.93;100.00
9784;BME280;4931;44.874;-1.092;2022-10-03T17:44:13;101893.53;;;19.76;100.00
9784;BME280;4931;44.874;-1.092;2022-10-03T17:49:07;101890.47;;;19.63;100.00
9784;BME280;4931;44.874;-1.092;2022-10-03T17:54:05;101892.63;;;19.44;100.00
9784;BME280;4931;44.874;-1.092;2022-10-03T17:59:03;101889.75;;;19.35;100.00
9784;BME280;4931;44.874;-1.092;2022-10-03T18:03:52;101891.00;;;19.15;100.00
9784;BME280;4931;44.874;-1.092;2022-10-03T18:08:39;101896.78;;;19.04;100.00
9784;BME280;4931;44.874;-1.092;2022-10-03T18:13:29;101904.81;;;18.92;100.00
9784;BME280;4931;44.874;-1.092;2022-10-03T18:18:47;101893.25;;;18.71;100.00
9784;BME280;4931;44.874;-1.092;2022-10-03T18:23:42;101900.22;;;18.40;100.00
9784;BME280;4931;44.874;-1.092;2022-10-03T18:28:42;101900.91;;;18.32;100.00
9784;BME280;4931;44.874;-1.092;2022-10-03T18:33:33;101902.13;;;18.26;100.00
9784;BME280;4931;44.874;-1.092;2022-10-03T18:38:27;101908.16;;;18.14;100.00
9784;BME280;4931;44.874;-1.092;2022-10-03T18:43:25;101903.47;;;17.96;100.00
9784;BME280;4931;44.874;-1.092;2022-10-03T18:48:14;101907.44;;;17.70;100.00
9784;BME280;4931;44.874;-1.092;2022-10-03T18:53:15;101901.97;;;17.65;100.00
9784;BME280;4931;44.874;-1.092;2022-10-03T18:58:13;101904.34;;;17.53;100.00
9784;BME280;4931;44.874;-1.092;2022-10-03T19:03:03;101893.78;;;17.36;100.00
9784;BME280;4931;44.874;-1.092;2022-10-03T19:07:59;101901.97;;;17.27;100.00
9784;BME280;4931;44.874;-1.092;2022-10-03T19:12:50;101912.69;;;17.09;100.00
9784;BME280;4931;44.874;-1.092;2022-10-03T19:17:49;101912.25;;;17.02;100.00
9784;BME280;4931;44.874;-1.092;2022-10-03T19:22:40;101909.00;;;16.95;100.00
9784;BME280;4931;44.874;-1.092;2022-10-03T19:27:43;101918.22;;;16.85;100.00
9784;BME280;4931;44.874;-1.092;2022-10-03T19:32:48;101917.47;;;16.80;100.00
9784;BME280;4931;44.874;-1.092;2022-10-03T19:37:40;101921.31;;;16.84;100.00
9784;BME280;4931;44.874;-1.092;2022-10-03T19:42:32;101925.88;;;16.69;100.00
9784;BME280;4931;44.874;-1.092;2022-10-03T19:47:27;101920.41;;;16.64;100.00
9784;BME280;4931;44.874;-1.092;2022-10-03T19:52:22;101927.66;;;16.60;100.00
9784;BME280;4931;44.874;-1.092;2022-10-03T19:57:14;101926.56;;;16.56;100.00
9784;BME280;4931;44.874;-1.092;2022-10-03T20:02:04;101919.44;;;16.50;100.00
9784;BME280;4931;44.874;-1.092;2022-10-03T20:06:52;101924.13;;;16.49;100.00
9784;BME280;4931;44.874;-1.092;2022-10-03T20:11:44;101926.69;;;16.46;100.00
9784;BME280;4931;44.874;-1.092;2022-10-03T20:16:32;101918.56;;;16.25;100.00
9784;BME280;4931;44.874;-1.092;2022-10-03T20:21:26;101919.75;;;16.14;100.00
9784;BME280;4931;44.874;-1.092;2022-10-03T20:26:22;101928.00;;;16.19;100.00
9784;BME280;4931;44.874;-1.092;2022-10-03T20:31:18;101924.72;;;16.17;100.00
9784;BME280;4931;44.874;-1.092;2022-10-03T20:36:10;101928.59;;;16.16;100.00
9784;BME280;4931;44.874;-1.092;2022-10-03T20:41:03;101925.28;;;16.14;100.00
9784;BME280;4931;44.874;-1.092;2022-10-03T20:46:04;101920.97;;;16.02;100.00
9784;BME280;4931;44.874;-1.092;2022-10-03T20:50:55;101926.00;;;15.90;100.00
9784;BME280;4931;44.874;-1.092;2022-10-03T20:55:46;101934.34;;;15.85;100.00
9784;BME280;4931;44.874;-1.092;2022-10-03T21:00:41;101930.78;;;15.79;100.00
9784;BME280;4931;44.874;-1.092;2022-10-03T21:05:33;101929.94;;;15.79;100.00
9784;BME280;4931;44.874;-1.092;2022-10-03T21:10:27;101922.53;;;15.69;100.00
9784;BME280;4931;44.874;-1.092;2022-10-03T21:15:20;101915.13;;;15.59;100.00
9784;BME280;4931;44.874;-1.092;2022-10-03T21:20:14;101913.47;;;15.58;100.00
9784;BME280;4931;44.874;-1.092;2022-10-03T21:25:02;101905.22;;;15.53;100.00
9784;BME280;4931;44.874;-1.092;2022-10-03T21:29:57;101898.03;;;15.52;100.00
9784;BME280;4931;44.874;-1.092;2022-10-03T21:34:47;101906.34;;;15.47;100.00
9784;BME280;4931;44.874;-1.092;2022-10-03T21:39:41;101902.50;;;15.42;100.00
9784;BME280;4931;44.874;-1.092;2022-10-03T21:44:43;101898.03;;;15.47;100.00
9784;BME280;4931;44.874;-1.092;2022-10-03T21:49:43;101895.59;;;15.40;100.00
9784;BME280;4931;44.874;-1.092;2022-10-03T21:54:39;101901.44;;;15.33;100.00
9784;BME280;4931;44.874;-1.092;2022-10-03T21:59:48;101897.03;;;15.27;100.00
9784;BME280;4931;44.874;-1.092;2022-10-03T22:04:44;101895.69;;;15.19;100.00
9784;BME280;4931;44.874;-1.092;2022-10-03T22:09:32;101885.88;;;14.92;100.00
9784;BME280;4931;44.874;-1.092;2022-10-03T22:14:26;101886.09;;;15.06;100.00
9784;BME280;4931;44.874;-1.092;2022-10-03T22:19:19;101889.97;;;15.05;100.00
9784;BME280;4931;44.874;-1.092;2022-10-03T22:24:14;101878.94;;;15.00;100.00
9784;BME280;4931;44.874;-1.092;2022-10-03T22:29:08;101878.47;;;14.83;100.00
9784;BME280;4931;44.874;-1.092;2022-10-03T22:34:09;101885.06;;;14.87;100.00
9784;BME280;4931;44.874;-1.092;2022-10-03T22:39:10;101882.03;;;14.83;100.00
9784;BME280;4931;44.874;-1.092;2022-10-03T22:43:58;101879.59;;;14.76;100.00
9784;BME280;4931;44.874;-1.092;2022-10-03T22:48:48;101870.19;;;14.62;100.00
9784;BME280;4931;44.874;-1.092;2022-10-03T22:53:35;101877.91;;;14.60;100.00
9784;BME280;4931;44.874;-1.092;2022-10-03T22:58:26;101874.09;;;14.51;100.00
9784;BME280;4931;44.874;-1.092;2022-10-03T23:03:16;101874.66;;;14.48;100.00
9784;BME280;4931;44.874;-1.092;2022-10-03T23:08:08;101870.22;;;14.41;100.00
9784;BME280;4931;44.874;-1.092;2022-10-03T23:13:02;101877.72;;;14.36;100.00
9784;BME280;4931;44.874;-1.092;2022-10-03T23:18:03;101873.56;;;14.23;100.00
9784;BME280;4931;44.874;-1.092;2022-10-03T23:22:56;101873.88;;;14.16;100.00
9784;BME280;4931;44.874;-1.092;2022-10-03T23:27:57;101865.31;;;14.02;100.00
9784;BME280;4931;44.874;-1.092;2022-10-03T23:32:53;101872.47;;;13.93;100.00
9784;BME280;4931;44.874;-1.092;2022-10-03T23:37:45;101869.19;;;13.91;100.00
9784;BME280;4931;44.874;-1.092;2022-10-03T23:42:40;101864.19;;;13.88;100.00
9784;BME280;4931;44.874;-1.092;2022-10-03T23:47:29;101862.00;;;13.80;100.00
9784;BME280;4931;44.874;-1.092;2022-10-03T23:52:21;101863.63;;;13.65;100.00
9784;BME280;4931;44.874;-1.092;2022-10-03T23:57:12;101853.72;;;13.69;100.00
